New York, New York
Traffic Map
Current Weather Conditions
New York, New York
Clear
Clear
83°
Feels Like: 83°
Wind Chill: 83° Ceiling: Unl
Heat Index: 83° Visibility: 10mi
Dew Point: 54° Wind: 0mph
Humidity: 37% Direction: ° ()
Pressure: 29.78in Gusts: 0mph
Raw Report DataKNYC 212151Z AUTO 00000KT 10SM CLR 28/12 A2978 RMK AO2 SLP074 T02830122 $
Traffic Incident Summary
Active as of:
Severity:
Category:
InformationThere was an issue retrieving the traffic information for this location. Please try a different location or try again shortly.
Advertisements